Time;durP1;ratioP1;P1;durP2;ratioP2;P2;SDS_P1;SDS_P2;PMS_P1;PMS_P2;Temp;Humidity;BMP_temperature;BMP_pressure;BME280_temperature;BME280_humidity;BME280_pressure;Samples;Min_cycle;Max_cycle;Signal;HPM_P1;HPM_P2
2021/07/10 00:01:17;;;;;;;4.33;4.03;;;15.10;99.90;;;;;;4994914;28;20408;-69
2021/07/10 00:03:42;;;;;;;5.60;4.47;;;15.00;99.90;;;;;;4995188;28;20161;-70
2021/07/10 00:06:08;;;;;;;4.67;4.27;;;15.00;99.90;;;;;;4994971;28;20223;-70
2021/07/10 00:08:34;;;;;;;4.53;4.13;;;15.00;99.90;;;;;;4994972;28;20682;-70
2021/07/10 00:11:01;;;;;;;4.87;4.47;;;15.00;99.90;;;;;;4994828;28;20224;-70
2021/07/10 00:13:27;;;;;;;4.30;3.93;;;15.00;99.90;;;;;;4994822;28;20409;-71
2021/07/10 00:15:52;;;;;;;3.97;3.67;;;15.00;99.90;;;;;;4994811;28;20803;-71
2021/07/10 00:18:18;;;;;;;7.33;5.07;;;15.00;99.90;;;;;;4994558;28;20189;-70
2021/07/10 00:20:44;;;;;;;4.87;4.43;;;15.00;99.90;;;;;;4994762;28;20248;-71
2021/07/10 00:23:09;;;;;;;4.57;4.20;;;15.00;99.90;;;;;;4994479;28;20169;-71
2021/07/10 00:25:35;;;;;;;5.40;4.90;;;15.00;99.90;;;;;;4994589;28;20412;-71
2021/07/10 00:28:00;;;;;;;5.10;4.70;;;15.00;99.90;;;;;;4994419;28;20228;-71
2021/07/10 00:30:27;;;;;;;4.93;4.43;;;15.00;99.90;;;;;;4994479;28;20638;-70
2021/07/10 00:32:52;;;;;;;5.40;4.80;;;15.00;99.90;;;;;;4994675;28;20173;-73
2021/07/10 00:35:18;;;;;;;5.20;4.43;;;15.00;99.90;;;;;;4994274;28;20428;-71
2021/07/10 00:37:44;;;;;;;4.93;4.63;;;15.00;99.90;;;;;;4994205;28;20239;-72
2021/07/10 00:40:12;;;;;;;4.20;3.90;;;15.00;99.90;;;;;;4993471;28;20427;-72
2021/07/10 00:42:38;;;;;;;4.23;3.93;;;15.00;99.90;;;;;;4994740;28;20181;-72
2021/07/10 00:45:07;;;;;;;5.30;4.90;;;15.00;99.90;;;;;;4976797;28;20924;-72
2021/07/10 00:47:33;;;;;;;4.70;4.30;;;15.00;99.90;;;;;;4993979;28;20424;-72
2021/07/10 00:49:58;;;;;;;4.67;4.30;;;15.00;99.90;;;;;;4994028;28;20435;-72
2021/07/10 00:52:24;;;;;;;4.70;4.30;;;15.00;99.90;;;;;;4994137;28;20811;-72
2021/07/10 00:54:49;;;;;;;5.10;4.53;;;15.00;99.90;;;;;;4994036;28;20173;-72
2021/07/10 00:57:16;;;;;;;8.70;5.60;;;15.00;99.90;;;;;;4993808;28;20197;-72
2021/07/10 00:59:42;;;;;;;5.10;4.73;;;15.00;99.90;;;;;;4994024;28;20621;-72
2021/07/10 01:02:07;;;;;;;4.33;4.03;;;15.00;99.90;;;;;;4993666;28;20427;-72
2021/07/10 01:04:33;;;;;;;4.47;4.10;;;15.00;99.90;;;;;;4993804;28;20177;-73
2021/07/10 01:06:58;;;;;;;5.20;4.80;;;15.00;99.90;;;;;;4993760;28;20880;-72
2021/07/10 01:09:24;;;;;;;4.20;3.80;;;15.10;99.90;;;;;;4993732;28;20677;-72
2021/07/10 01:11:50;;;;;;;4.50;4.20;;;15.00;99.90;;;;;;4993824;28;20200;-72
2021/07/10 01:14:15;;;;;;;4.87;3.80;;;15.00;99.90;;;;;;4993577;28;20181;-72
2021/07/10 01:16:41;;;;;;;5.00;4.60;;;15.00;99.90;;;;;;4993512;28;20518;-72
2021/07/10 01:19:06;;;;;;;5.27;4.77;;;15.00;99.90;;;;;;4993359;28;20193;-72
2021/07/10 01:21:32;;;;;;;5.23;4.67;;;15.10;99.90;;;;;;4993501;28;20264;-72
2021/07/10 01:23:57;;;;;;;5.90;5.40;;;15.10;99.90;;;;;;4991565;28;20522;-72
2021/07/10 01:26:23;;;;;;;5.17;4.67;;;15.00;99.90;;;;;;4993551;28;20172;-72
2021/07/10 01:28:48;;;;;;;6.60;6.00;;;15.00;99.90;;;;;;4975996;28;20204;-72
2021/07/10 01:31:16;;;;;;;4.97;4.57;;;15.00;99.90;;;;;;4993065;28;20169;-72
2021/07/10 01:33:41;;;;;;;6.40;5.80;;;15.00;99.90;;;;;;4993153;28;20669;-72
2021/07/10 01:36:07;;;;;;;5.80;5.40;;;15.00;99.90;;;;;;4993384;28;20455;-72
2021/07/10 01:38:32;;;;;;;5.97;5.43;;;15.10;99.90;;;;;;4991702;28;20204;-72
2021/07/10 01:40:58;;;;;;;6.13;5.63;;;15.10;99.90;;;;;;4991758;28;20188;-72
2021/07/10 01:43:24;;;;;;;7.47;6.30;;;15.10;99.90;;;;;;4993166;28;20636;-72
2021/07/10 01:45:50;;;;;;;7.67;6.93;;;15.10;99.90;;;;;;4992984;28;20177;-73
2021/07/10 01:48:15;;;;;;;6.97;6.30;;;15.10;99.90;;;;;;4992771;28;20428;-72
2021/07/10 01:50:42;;;;;;;8.90;8.10;;;15.10;99.90;;;;;;4992706;28;20660;-71
2021/07/10 01:53:11;;;;;;;9.77;7.30;;;15.10;99.90;;;;;;4992968;28;20168;-70
2021/07/10 01:55:36;;;;;;;7.80;6.97;;;15.10;99.90;;;;;;4992936;28;20416;-71
2021/07/10 01:58:02;;;;;;;8.40;7.70;;;15.10;99.90;;;;;;4992698;28;20461;-71
2021/07/10 02:00:37;;;;;;;9.00;8.27;;;15.10;99.90;;;;;;4993109;28;20538;-71
2021/07/10 02:03:03;;;;;;;8.93;7.73;;;15.10;99.90;;;;;;4992665;28;20921;-72
2021/07/10 02:05:29;;;;;;;9.53;8.63;;;15.10;99.90;;;;;;4992832;28;20462;-72
2021/07/10 02:07:58;;;;;;;9.97;8.87;;;15.10;99.90;;;;;;4993079;28;20177;-70
2021/07/10 02:10:25;;;;;;;10.07;9.13;;;15.10;99.90;;;;;;4993209;28;20411;-71
2021/07/10 02:12:56;;;;;;;9.87;8.93;;;15.10;99.90;;;;;;4992964;28;20438;-71
2021/07/10 02:15:22;;;;;;;9.80;8.90;;;15.10;99.90;;;;;;4992858;28;20779;-72
2021/07/10 02:17:47;;;;;;;11.10;9.97;;;15.10;99.90;;;;;;4992525;28;20451;-71
2021/07/10 02:20:15;;;;;;;11.00;9.97;;;15.20;99.90;;;;;;4992672;28;20165;-72
2021/07/10 02:22:42;;;;;;;14.20;10.80;;;15.20;99.90;;;;;;4992724;28;20456;-72
2021/07/10 02:25:10;;;;;;;11.77;10.77;;;15.20;99.90;;;;;;4992647;28;20445;-71
2021/07/10 02:27:35;;;;;;;11.37;10.17;;;15.20;99.90;;;;;;4992680;28;20543;-72
2021/07/10 02:30:01;;;;;;;10.47;9.47;;;15.20;99.90;;;;;;4992615;28;21162;-72
2021/07/10 02:32:26;;;;;;;12.97;10.50;;;15.30;99.90;;;;;;4992555;28;20557;-73
2021/07/10 02:34:52;;;;;;;13.77;12.57;;;15.30;99.90;;;;;;4992749;28;20203;-72
2021/07/10 02:37:17;;;;;;;12.43;11.07;;;15.30;99.90;;;;;;4992892;28;20201;-73
2021/07/10 02:39:43;;;;;;;12.47;11.17;;;15.30;99.90;;;;;;4993272;28;20203;-73
2021/07/10 02:42:08;;;;;;;13.00;11.57;;;15.40;99.90;;;;;;4993192;28;20626;-73
2021/07/10 02:44:34;;;;;;;12.83;11.60;;;15.40;99.90;;;;;;4993330;28;20192;-71
2021/07/10 02:46:59;;;;;;;12.73;11.43;;;15.40;99.90;;;;;;4993602;28;20248;-73
2021/07/10 02:49:25;;;;;;;13.17;11.90;;;15.40;99.90;;;;;;4993995;28;20189;-73
2021/07/10 02:51:50;;;;;;;12.10;11.00;;;15.50;99.90;;;;;;4994731;28;20539;-73
2021/07/10 02:54:16;;;;;;;11.77;10.57;;;15.50;99.90;;;;;;4994947;28;20179;-73
2021/07/10 02:56:41;;;;;;;13.13;11.83;;;15.50;99.90;;;;;;4994060;28;20201;-72
2021/07/10 02:59:07;;;;;;;14.30;11.90;;;15.50;99.90;;;;;;4992634;28;20189;-72
2021/07/10 03:01:32;;;;;;;12.90;11.60;;;15.60;99.90;;;;;;4992503;28;20223;-71
2021/07/10 03:03:58;;;;;;;12.10;10.90;;;15.60;99.90;;;;;;4996944;28;20180;-72
2021/07/10 03:06:23;;;;;;;12.20;10.60;;;15.60;99.90;;;;;;4997299;28;20586;-73
2021/07/10 03:08:49;;;;;;;11.80;10.20;;;15.60;99.90;;;;;;4996820;28;20185;-72
2021/07/10 03:11:15;;;;;;;12.20;10.80;;;15.60;99.90;;;;;;4997107;28;20174;-73
2021/07/10 03:13:40;;;;;;;11.43;10.43;;;15.60;99.90;;;;;;4997064;28;20169;-72
2021/07/10 03:16:07;;;;;;;10.10;9.20;;;15.70;99.90;;;;;;4996187;28;20536;-72
2021/07/10 03:18:32;;;;;;;11.23;10.10;;;15.70;99.90;;;;;;4995909;28;20217;-73
2021/07/10 03:20:58;;;;;;;11.27;9.23;;;15.70;99.90;;;;;;4998803;28;20401;-74
2021/07/10 03:23:23;;;;;;;11.50;10.50;;;15.70;99.90;;;;;;5000468;28;20650;-72
2021/07/10 03:25:49;;;;;;;11.50;10.30;;;15.70;99.90;;;;;;4994921;28;20173;-73
2021/07/10 03:28:14;;;;;;;10.97;9.93;;;15.70;99.90;;;;;;4996551;28;20249;-72
2021/07/10 03:30:40;;;;;;;11.23;10.13;;;15.70;99.90;;;;;;4996905;28;20177;-72
2021/07/10 03:33:06;;;;;;;11.07;9.97;;;15.80;99.90;;;;;;4997256;28;20368;-72
2021/07/10 03:35:32;;;;;;;10.13;9.23;;;15.80;99.90;;;;;;4996862;28;20433;-71
2021/07/10 03:37:57;;;;;;;10.63;9.63;;;15.80;99.90;;;;;;4996856;28;20293;-72
2021/07/10 03:40:26;;;;;;;11.43;9.33;;;15.80;99.90;;;;;;4996765;28;20197;-72
2021/07/10 03:42:51;;;;;;;10.90;9.80;;;15.80;99.90;;;;;;4996156;28;20635;-72
2021/07/10 03:45:18;;;;;;;10.10;9.13;;;15.80;99.90;;;;;;4995815;28;20413;-73
2021/07/10 03:47:43;;;;;;;11.53;10.43;;;15.80;99.90;;;;;;4995503;28;20172;-72
2021/07/10 03:50:13;;;;;;;10.13;9.23;;;15.80;99.90;;;;;;4995585;28;20507;-73
2021/07/10 03:52:39;;;;;;;9.60;8.60;;;15.80;99.90;;;;;;4995312;28;20186;-72
2021/07/10 03:55:07;;;;;;;11.33;10.23;;;15.80;99.90;;;;;;4995657;28;20899;-73
2021/07/10 03:57:33;;;;;;;11.23;9.83;;;15.80;99.90;;;;;;4995333;28;20540;-73
2021/07/10 03:59:59;;;;;;;11.10;10.10;;;15.90;99.90;;;;;;4995266;28;20428;-72
2021/07/10 04:02:24;;;;;;;11.63;10.43;;;15.90;99.90;;;;;;4995173;28;20401;-70
2021/07/10 04:04:50;;;;;;;11.10;10.10;;;15.80;99.90;;;;;;4995403;28;20171;-73
2021/07/10 04:07:16;;;;;;;11.80;10.73;;;15.90;99.90;;;;;;4995481;28;20177;-72
2021/07/10 04:09:41;;;;;;;11.63;10.50;;;15.90;99.90;;;;;;4995344;28;20422;-73
2021/07/10 04:12:07;;;;;;;11.40;10.30;;;15.80;99.90;;;;;;4977393;28;20178;-74
2021/07/10 04:14:35;;;;;;;11.37;10.17;;;15.80;99.90;;;;;;4994844;28;20643;-70
2021/07/10 04:17:02;;;;;;;11.77;10.77;;;15.80;99.90;;;;;;4994717;28;20194;-72
2021/07/10 04:19:27;;;;;;;13.47;12.17;;;15.80;99.90;;;;;;4994668;28;20968;-72
2021/07/10 04:21:53;;;;;;;12.00;10.90;;;15.80;99.90;;;;;;4994723;28;20414;-71
2021/07/10 04:24:18;;;;;;;13.93;11.40;;;15.80;99.90;;;;;;4994841;28;20196;-72
2021/07/10 04:26:44;;;;;;;12.17;10.63;;;15.80;99.90;;;;;;4994669;28;20181;-73
2021/07/10 04:29:09;;;;;;;12.83;10.77;;;15.90;99.90;;;;;;4994444;28;20557;-73
2021/07/10 04:31:35;;;;;;;14.07;11.70;;;15.90;99.90;;;;;;4994611;28;20177;-72
2021/07/10 04:34:00;;;;;;;13.07;11.67;;;15.90;99.90;;;;;;4994387;28;20201;-72
2021/07/10 04:36:26;;;;;;;12.80;11.60;;;15.90;99.90;;;;;;4994483;28;20180;-72
2021/07/10 04:38:51;;;;;;;17.20;12.37;;;15.80;99.90;;;;;;4994280;28;20191;-71
2021/07/10 04:41:17;;;;;;;15.03;11.27;;;15.80;99.90;;;;;;4994310;28;20170;-72
2021/07/10 04:43:42;;;;;;;13.43;11.90;;;15.80;99.90;;;;;;4994213;28;20204;-72
2021/07/10 04:46:09;;;;;;;13.10;11.37;;;15.80;99.90;;;;;;4994266;28;20165;-71
2021/07/10 04:48:34;;;;;;;12.50;11.20;;;15.80;99.90;;;;;;4993966;28;20189;-72
2021/07/10 04:51:00;;;;;;;13.50;11.63;;;15.80;99.90;;;;;;4994106;28;20495;-72
2021/07/10 04:53:26;;;;;;;15.70;12.60;;;15.70;99.90;;;;;;4994124;28;20179;-72
2021/07/10 04:55:51;;;;;;;14.17;11.13;;;15.70;99.90;;;;;;4994245;28;20413;-71
2021/07/10 04:58:17;;;;;;;12.70;11.17;;;15.80;99.90;;;;;;4993685;28;20219;-72
2021/07/10 05:00:42;;;;;;;12.23;11.03;;;15.70;99.90;;;;;;4993976;28;20177;-72
2021/07/10 05:03:10;;;;;;;13.63;12.13;;;15.80;99.90;;;;;;4994051;28;20166;-72
2021/07/10 05:05:35;;;;;;;14.57;11.43;;;15.80;99.90;;;;;;4994161;28;20177;-72
2021/07/10 05:08:02;;;;;;;12.60;11.17;;;15.80;99.90;;;;;;4993722;28;20476;-71
2021/07/10 05:10:27;;;;;;;14.43;11.10;;;15.80;99.90;;;;;;4994058;28;20180;-72
2021/07/10 05:12:53;;;;;;;12.23;11.03;;;15.90;99.90;;;;;;4993876;28;20774;-72
2021/07/10 05:15:19;;;;;;;12.43;11.10;;;15.90;99.90;;;;;;4994042;28;20173;-72
2021/07/10 05:17:45;;;;;;;11.83;10.37;;;15.80;99.90;;;;;;4993615;28;20460;-72
2021/07/10 05:20:11;;;;;;;11.73;10.13;;;15.90;99.90;;;;;;4993623;28;20261;-70
2021/07/10 05:22:36;;;;;;;10.23;9.23;;;15.90;99.90;;;;;;4993455;28;20643;-70
2021/07/10 05:25:03;;;;;;;13.33;11.70;;;15.90;99.90;;;;;;4993087;28;20411;-72
2021/07/10 05:27:29;;;;;;;10.93;9.83;;;15.90;99.90;;;;;;4993211;28;20253;-71
2021/07/10 05:29:54;;;;;;;14.00;10.30;;;15.90;99.90;;;;;;4993278;28;20864;-72
2021/07/10 05:32:20;;;;;;;11.40;10.20;;;16.00;99.90;;;;;;4993342;28;20212;-72
2021/07/10 05:34:45;;;;;;;12.80;10.50;;;15.90;99.90;;;;;;4993102;28;20227;-72
2021/07/10 05:37:11;;;;;;;12.43;11.10;;;16.00;99.90;;;;;;4993074;28;20207;-71
2021/07/10 05:39:38;;;;;;;11.30;10.10;;;16.00;99.90;;;;;;4993212;28;20185;-72
2021/07/10 05:42:05;;;;;;;14.23;11.83;;;16.00;99.90;;;;;;4993080;28;20165;-71
2021/07/10 05:44:31;;;;;;;11.77;10.57;;;16.00;99.90;;;;;;4993289;28;20409;-72
2021/07/10 05:46:57;;;;;;;11.27;10.17;;;16.00;99.90;;;;;;4993524;28;20405;-72
2021/07/10 05:49:22;;;;;;;12.50;11.30;;;16.00;99.90;;;;;;4993017;28;20429;-72
2021/07/10 05:51:48;;;;;;;11.17;10.00;;;16.10;99.90;;;;;;4993076;28;20177;-72
2021/07/10 05:54:13;;;;;;;12.63;10.43;;;16.10;99.90;;;;;;4993277;28;20174;-70
2021/07/10 05:56:39;;;;;;;11.77;10.50;;;16.20;99.90;;;;;;4992956;28;20228;-73
2021/07/10 05:59:04;;;;;;;11.43;10.20;;;16.20;99.90;;;;;;4993612;28;20195;-72
2021/07/10 06:01:30;;;;;;;11.40;10.30;;;16.20;99.90;;;;;;4993800;28;20186;-71
2021/07/10 06:03:55;;;;;;;11.13;9.20;;;16.30;99.90;;;;;;4994493;28;20175;-72
2021/07/10 06:06:21;;;;;;;10.03;9.03;;;16.40;99.90;;;;;;4994812;28;20167;-72
2021/07/10 06:08:46;;;;;;;9.97;8.83;;;16.50;99.90;;;;;;4995094;28;20225;-71
2021/07/10 06:11:12;;;;;;;11.13;10.03;;;16.60;99.90;;;;;;4995295;28;20183;-71
2021/07/10 06:13:37;;;;;;;11.00;9.70;;;16.90;99.90;;;;;;4995089;28;20179;-73
2021/07/10 06:16:03;;;;;;;10.57;9.57;;;16.90;99.90;;;;;;4994727;28;20234;-73
2021/07/10 06:18:29;;;;;;;11.50;9.80;;;17.10;99.90;;;;;;4993583;28;20210;-72
2021/07/10 06:20:54;;;;;;;10.23;9.03;;;16.90;99.90;;;;;;4994247;28;20174;-71
2021/07/10 06:23:21;;;;;;;8.67;7.77;;;17.00;99.90;;;;;;4994261;28;20237;-72
2021/07/10 06:25:47;;;;;;;9.83;8.83;;;17.10;99.90;;;;;;4994003;28;20165;-70
2021/07/10 06:28:13;;;;;;;11.80;8.87;;;17.10;99.90;;;;;;4993995;28;20448;-71
2021/07/10 06:30:38;;;;;;;9.53;8.60;;;17.30;99.90;;;;;;4994637;28;20420;-73
2021/07/10 06:33:04;;;;;;;10.17;7.83;;;17.10;99.90;;;;;;4994620;28;20422;-74
2021/07/10 06:35:31;;;;;;;9.70;8.70;;;17.00;99.90;;;;;;4993704;28;20188;-73
2021/07/10 06:37:57;;;;;;;10.37;8.53;;;16.90;99.90;;;;;;4993437;28;20590;-73
2021/07/10 06:40:22;;;;;;;10.63;9.63;;;17.10;99.90;;;;;;4994557;28;20412;-73
2021/07/10 06:42:48;;;;;;;8.77;7.90;;;17.30;99.90;;;;;;4994088;28;20180;-74
2021/07/10 06:45:16;;;;;;;9.83;8.47;;;17.20;99.90;;;;;;4994044;28;20172;-71
2021/07/10 06:47:41;;;;;;;9.70;8.73;;;17.50;99.90;;;;;;4993334;28;20234;-72
2021/07/10 06:50:09;;;;;;;7.27;6.67;;;17.50;99.90;;;;;;4992840;28;20933;-73
2021/07/10 06:52:35;;;;;;;9.27;8.40;;;17.90;99.90;;;;;;4992851;28;20179;-73
2021/07/10 06:55:00;;;;;;;10.37;8.20;;;17.80;99.90;;;;;;4992424;28;20757;-73
2021/07/10 06:57:25;;;;;;;7.83;7.17;;;17.80;99.90;;;;;;4992338;28;20468;-71
2021/07/10 06:59:51;;;;;;;9.23;8.17;;;18.10;99.90;;;;;;4992666;28;20196;-72
2021/07/10 07:02:16;;;;;;;7.47;6.87;;;18.50;99.90;;;;;;4992516;28;20201;-71
2021/07/10 07:04:42;;;;;;;9.30;7.13;;;18.10;99.90;;;;;;4993090;28;20193;-72
2021/07/10 07:07:08;;;;;;;8.67;7.87;;;18.20;99.90;;;;;;4992987;28;20178;-70
2021/07/10 07:09:34;;;;;;;9.10;7.23;;;18.10;99.90;;;;;;4992325;28;20346;-71
2021/07/10 07:12:00;;;;;;;8.50;7.70;;;17.90;99.90;;;;;;4992055;28;20175;-72
2021/07/10 07:14:25;;;;;;;10.83;6.83;;;18.00;99.90;;;;;;4992061;28;20228;-72
2021/07/10 07:16:51;;;;;;;7.53;6.83;;;18.10;99.90;;;;;;4991884;28;20536;-71
2021/07/10 07:19:16;;;;;;;9.00;7.33;;;18.10;99.90;;;;;;4992279;28;20196;-78
2021/07/10 07:21:42;;;;;;;7.63;6.93;;;18.20;99.90;;;;;;4992441;28;20170;-71
2021/07/10 07:24:08;;;;;;;9.33;7.50;;;18.50;99.90;;;;;;4991955;28;20196;-72
2021/07/10 07:26:35;;;;;;;8.37;6.83;;;18.70;99.90;;;;;;4999316;28;20190;-72
2021/07/10 07:29:01;;;;;;;6.50;5.87;;;18.80;99.90;;;;;;4976238;28;20594;-71
2021/07/10 07:31:27;;;;;;;8.03;6.77;;;19.20;99.90;;;;;;4991093;28;20425;-72
2021/07/10 07:33:52;;;;;;;11.67;8.03;;;19.00;99.90;;;;;;4992717;28;20468;-73
2021/07/10 07:36:18;;;;;;;7.30;6.67;;;19.30;99.90;;;;;;4992301;28;20190;-73
2021/07/10 07:38:43;;;;;;;6.30;5.70;;;19.10;99.90;;;;;;4991645;28;20233;-72
2021/07/10 07:41:09;;;;;;;7.40;6.80;;;18.90;99.90;;;;;;4975517;28;20171;-71
2021/07/10 07:43:35;;;;;;;6.77;6.17;;;19.00;99.90;;;;;;4973313;28;20602;-70
2021/07/10 07:46:01;;;;;;;5.47;5.07;;;20.10;99.90;;;;;;4990084;28;20185;-73
2021/07/10 07:48:26;;;;;;;5.13;4.73;;;20.60;99.90;;;;;;4994456;28;20363;-73
2021/07/10 07:50:52;;;;;;;5.77;5.30;;;21.30;99.90;;;;;;4996017;28;20520;-73
2021/07/10 07:53:19;;;;;;;5.47;5.03;;;21.40;99.90;;;;;;4995349;28;20176;-72
2021/07/10 07:55:45;;;;;;;7.80;5.10;;;21.20;99.90;;;;;;4995222;28;20538;-73
2021/07/10 07:58:12;;;;;;;5.13;4.80;;;20.60;99.90;;;;;;4994880;28;20455;-70
2021/07/10 08:00:37;;;;;;;5.77;5.30;;;21.20;99.90;;;;;;4995239;28;20406;-70
2021/07/10 08:03:03;;;;;;;6.20;5.70;;;20.70;99.90;;;;;;4994987;28;20969;-71
2021/07/10 08:05:28;;;;;;;10.27;9.10;;;20.70;99.90;;;;;;4994957;28;20589;-72
2021/07/10 08:07:54;;;;;;;6.53;5.50;;;21.10;99.90;;;;;;4994577;28;20262;-71
2021/07/10 08:10:20;;;;;;;10.20;9.07;;;20.40;99.90;;;;;;4984384;28;20192;-71
2021/07/10 08:12:49;;;;;;;10.20;8.83;;;21.00;99.90;;;;;;4978957;28;20172;-72
2021/07/10 08:15:16;;;;;;;39.20;33.77;;;21.00;99.90;;;;;;4980992;28;20415;-72
2021/07/10 08:17:44;;;;;;;6.20;5.60;;;21.80;99.90;;;;;;4994547;28;20456;-71
2021/07/10 08:20:10;;;;;;;9.63;5.00;;;21.00;99.90;;;;;;4994572;28;20421;-71
2021/07/10 08:22:36;;;;;;;5.83;4.80;;;20.60;99.90;;;;;;4994844;28;20546;-71
2021/07/10 08:25:03;;;;;;;5.10;4.60;;;20.90;99.90;;;;;;4994716;28;20952;-72
2021/07/10 08:27:29;;;;;;;6.10;4.83;;;21.50;99.90;;;;;;4995095;28;20186;-72
2021/07/10 08:29:54;;;;;;;6.10;5.50;;;21.30;99.90;;;;;;4994630;28;20432;-71
2021/07/10 08:32:19;;;;;;;3.87;3.47;;;22.30;99.90;;;;;;5001344;28;20267;-71
2021/07/10 08:34:45;;;;;;;12.73;10.93;;;21.90;99.90;;;;;;5013814;28;20197;-73
2021/07/10 08:37:10;;;;;;;5.03;4.53;;;22.70;99.90;;;;;;5009463;28;20676;-69
2021/07/10 08:39:36;;;;;;;4.90;4.50;;;24.50;99.90;;;;;;4994371;28;20283;-71
2021/07/10 08:42:02;;;;;;;4.30;3.90;;;24.30;99.90;;;;;;4994513;28;20202;-70
2021/07/10 08:44:32;;;;;;;4.23;3.53;;;23.80;99.90;;;;;;4994533;28;20634;-72
2021/07/10 08:46:58;;;;;;;3.90;3.60;;;23.10;99.90;;;;;;4994079;28;20407;-72
2021/07/10 08:49:25;;;;;;;5.57;3.50;;;24.00;99.90;;;;;;4994256;28;20440;-72
2021/07/10 08:51:51;;;;;;;6.50;3.30;;;24.00;99.90;;;;;;4994062;28;20503;-72
2021/07/10 08:54:17;;;;;;;3.87;3.57;;;23.50;99.90;;;;;;4993928;28;20855;-71
2021/07/10 08:56:43;;;;;;;3.17;2.97;;;23.70;99.90;;;;;;4993887;28;20260;-70
2021/07/10 08:59:09;;;;;;;3.83;3.57;;;24.40;99.90;;;;;;4993904;28;20670;-72
2021/07/10 09:01:35;;;;;;;3.30;3.00;;;23.90;99.90;;;;;;4993270;28;20991;-72
2021/07/10 09:04:00;;;;;;;4.10;3.77;;;24.30;99.90;;;;;;4993886;28;20502;-71
2021/07/10 09:06:26;;;;;;;4.17;3.87;;;24.50;99.90;;;;;;4994826;28;20181;-72
2021/07/10 09:08:55;;;;;;;3.90;3.60;;;24.20;99.90;;;;;;4993637;28;20292;-71
2021/07/10 09:11:21;;;;;;;4.17;3.80;;;23.50;99.90;;;;;;4993738;28;20630;-72
2021/07/10 09:13:50;;;;;;;4.20;3.47;;;24.20;99.90;;;;;;4993784;28;20408;-72
2021/07/10 09:16:28;;;;;;;4.83;4.43;;;23.70;99.90;;;;;;4994020;28;20450;-71
2021/07/10 09:18:58;;;;;;;7.87;6.70;;;23.40;99.90;;;;;;4993405;28;20459;-71
2021/07/10 09:21:45;;;;;;;19.03;15.00;;;24.50;99.90;;;;;;4993726;28;20893;-71
2021/07/10 09:24:14;;;;;;;5.50;5.10;;;24.20;99.90;;;;;;4993529;28;20438;-71
2021/07/10 09:26:48;;;;;;;10.70;9.73;;;23.70;99.90;;;;;;4993360;28;20408;-71
2021/07/10 09:29:20;;;;;;;10.33;9.23;;;23.90;99.90;;;;;;4993258;28;20530;-72
2021/07/10 09:31:57;;;;;;;6.67;6.13;;;24.30;99.90;;;;;;5004916;28;20476;-71
2021/07/10 09:34:39;;;;;;;9.90;8.93;;;23.10;99.90;;;;;;5012907;28;20813;-71
2021/07/10 09:37:12;;;;;;;17.00;15.37;;;22.90;99.90;;;;;;4973609;28;20482;-70
2021/07/10 09:39:42;;;;;;;11.37;10.27;;;23.50;99.90;;;;;;4973533;28;20427;-72
2021/07/10 09:42:08;;;;;;;7.80;7.10;;;23.90;99.90;;;;;;4974070;28;20403;-72
2021/07/10 09:44:49;;;;;;;18.37;16.27;;;23.90;99.90;;;;;;4973752;28;20412;-72
2021/07/10 09:47:17;;;;;;;8.50;7.70;;;24.50;99.90;;;;;;4973637;28;20415;-72
2021/07/10 09:49:46;;;;;;;7.27;6.57;;;24.10;99.90;;;;;;4973607;28;20433;-71
2021/07/10 09:52:17;;;;;;;5.67;5.07;;;24.50;99.90;;;;;;4973548;28;20940;-72
2021/07/10 09:54:54;;;;;;;6.20;5.70;;;24.50;99.90;;;;;;4973593;28;20416;-71
2021/07/10 09:57:31;;;;;;;6.10;5.50;;;23.30;99.90;;;;;;4973057;28;20466;-71
2021/07/10 10:00:01;;;;;;;8.77;7.00;;;24.10;99.90;;;;;;4973377;28;20478;-71
2021/07/10 10:02:31;;;;;;;7.67;6.97;;;24.20;99.90;;;;;;4973196;28;20422;-71
2021/07/10 10:05:11;;;;;;;7.20;6.60;;;23.40;99.90;;;;;;4973235;28;20416;-71
2021/07/10 10:07:42;;;;;;;6.47;4.97;;;23.50;99.90;;;;;;4990733;28;20425;-71
2021/07/10 10:10:08;;;;;;;5.43;4.93;;;23.20;99.90;;;;;;5006436;28;20964;-72
2021/07/10 10:12:34;;;;;;;5.70;5.17;;;23.20;99.90;;;;;;5012402;28;20519;-71
2021/07/10 10:14:59;;;;;;;7.10;5.50;;;23.90;99.90;;;;;;4998331;28;20528;-71
2021/07/10 10:17:26;;;;;;;5.63;5.13;;;23.50;99.90;;;;;;4992562;28;20204;-72
2021/07/10 10:19:53;;;;;;;5.90;5.40;;;23.90;99.90;;;;;;4992692;28;20559;-70
2021/07/10 10:22:19;;;;;;;6.60;5.50;;;24.20;99.90;;;;;;4992403;28;20421;-71
2021/07/10 10:24:48;;;;;;;13.13;5.47;;;24.60;99.90;;;;;;4992556;28;20757;-71
2021/07/10 10:27:15;;;;;;;5.83;5.43;;;24.30;99.90;;;;;;4992230;28;20416;-70
2021/07/10 10:29:41;;;;;;;5.37;4.87;;;24.60;99.90;;;;;;4992503;28;20445;-70
2021/07/10 10:32:08;;;;;;;5.97;5.47;;;24.20;99.90;;;;;;5009615;28;20409;-72
2021/07/10 10:34:36;;;;;;;6.67;5.90;;;24.50;99.90;;;;;;5012324;28;20438;-71
2021/07/10 10:37:02;;;;;;;6.77;6.20;;;24.20;99.90;;;;;;5012291;28;20442;-71
2021/07/10 10:39:34;;;;;;;6.43;5.83;;;24.10;99.90;;;;;;5012179;28;20489;-71
2021/07/10 10:42:07;;;;;;;8.50;6.23;;;24.90;99.90;;;;;;5012577;28;20400;-72
2021/07/10 10:44:36;;;;;;;6.07;4.50;;;25.10;99.90;;;;;;5014911;28;20403;-72
2021/07/10 10:47:01;;;;;;;5.53;4.97;;;24.50;99.90;;;;;;5014798;28;20465;-72
2021/07/10 10:49:48;;;;;;;10.57;5.33;;;23.60;99.90;;;;;;5013393;28;20419;-71
2021/07/10 10:52:35;;;;;;;6.27;5.67;;;23.50;99.90;;;;;;5011990;28;20174;-72
2021/07/10 10:55:12;;;;;;;5.13;4.73;;;23.90;99.90;;;;;;5011899;28;20422;-71
2021/07/10 10:57:44;;;;;;;5.33;4.70;;;24.10;99.90;;;;;;4985451;28;20560;-72
2021/07/10 11:00:23;;;;;;;6.50;4.30;;;23.50;99.90;;;;;;4992862;28;20919;-70
2021/07/10 11:03:09;;;;;;;5.07;4.67;;;23.90;99.90;;;;;;4991883;28;20418;-71
2021/07/10 11:05:45;;;;;;;4.83;4.33;;;23.70;99.90;;;;;;4992173;28;20405;-70
2021/07/10 11:08:19;;;;;;;6.90;5.47;;;23.80;99.90;;;;;;4992036;28;20470;-71
2021/07/10 11:10:49;;;;;;;5.07;4.57;;;23.70;99.90;;;;;;4984748;28;20401;-71
2021/07/10 11:13:40;;;;;;;5.03;4.57;;;24.00;99.90;;;;;;4992291;28;20422;-72
2021/07/10 11:16:09;;;;;;;5.00;4.60;;;24.10;99.90;;;;;;4994548;28;20441;-71
2021/07/10 11:18:56;;;;;;;7.70;6.90;;;24.20;99.90;;;;;;4978381;28;20621;-73
2021/07/10 11:21:44;;;;;;;7.63;6.23;;;24.20;99.90;;;;;;4995219;28;20403;-72
2021/07/10 11:24:16;;;;;;;10.03;8.80;;;23.60;99.90;;;;;;4997941;28;20415;-72
2021/07/10 11:26:54;;;;;;;11.73;10.40;;;23.90;99.90;;;;;;4995741;28;20935;-72
2021/07/10 11:29:31;;;;;;;4.40;4.10;;;24.00;99.90;;;;;;4995533;28;20443;-72
2021/07/10 11:32:12;;;;;;;6.97;5.37;;;23.90;99.90;;;;;;5010817;28;20433;-70
2021/07/10 11:34:52;;;;;;;4.00;3.40;;;24.10;99.90;;;;;;5014783;28;20452;-71
2021/07/10 11:37:29;;;;;;;5.87;5.30;;;23.90;99.90;;;;;;5014885;28;20449;-71
2021/07/10 11:39:57;;;;;;;5.83;4.20;;;23.70;99.90;;;;;;5015027;28;20461;-73
2021/07/10 11:42:25;;;;;;;4.57;4.17;;;23.80;99.90;;;;;;5014863;28;20810;-72
2021/07/10 11:44:54;;;;;;;14.73;11.63;;;23.70;99.90;;;;;;5012976;28;20494;-72
2021/07/10 11:47:31;;;;;;;4.80;4.13;;;23.90;99.90;;;;;;5003083;28;20421;-71
2021/07/10 11:49:58;;;;;;;6.20;5.70;;;24.00;99.90;;;;;;4976218;28;20431;-72
2021/07/10 11:52:23;;;;;;;18.70;16.20;;;23.80;99.90;;;;;;4991396;28;20461;-72
2021/07/10 11:54:51;;;;;;;4.83;4.43;;;23.90;99.90;;;;;;4995172;28;20441;-72
2021/07/10 11:57:18;;;;;;;6.10;4.87;;;24.20;99.90;;;;;;4977435;28;20572;-72
2021/07/10 11:59:43;;;;;;;8.00;4.90;;;24.00;99.90;;;;;;4995150;28;20427;-71
2021/07/10 12:02:21;;;;;;;22.00;17.47;;;24.30;99.90;;;;;;4995205;28;20494;-72
2021/07/10 12:05:15;;;;;;;7.37;5.47;;;24.30;99.90;;;;;;4995149;28;20229;-72
2021/07/10 12:07:49;;;;;;;10.63;9.53;;;24.50;99.90;;;;;;4977131;28;20488;-70
2021/07/10 12:10:35;;;;;;;32.87;28.83;;;23.60;99.90;;;;;;4995090;28;20464;-72
2021/07/10 12:13:18;;;;;;;8.93;8.03;;;23.50;99.90;;;;;;4994366;28;20847;-72
2021/07/10 12:15:48;;;;;;;7.00;6.40;;;24.20;99.90;;;;;;4994823;28;20400;-71
2021/07/10 12:18:15;;;;;;;4.77;4.37;;;24.50;99.90;;;;;;4994308;28;20466;-71
2021/07/10 12:20:50;;;;;;;11.67;10.50;;;24.40;99.90;;;;;;4994770;28;20415;-74
2021/07/10 12:23:18;;;;;;;4.40;4.10;;;24.60;99.90;;;;;;4994658;28;20395;-71
2021/07/10 12:25:52;;;;;;;4.50;4.20;;;24.30;99.90;;;;;;4994668;28;20419;-71
2021/07/10 12:28:38;;;;;;;7.87;6.80;;;24.20;99.90;;;;;;4994402;28;20435;-72
2021/07/10 12:31:26;;;;;;;4.13;3.73;;;24.20;99.90;;;;;;5002675;28;20450;-72
2021/07/10 12:33:55;;;;;;;4.70;3.50;;;24.20;99.90;;;;;;5013942;28;20405;-71
2021/07/10 12:36:28;;;;;;;4.20;3.90;;;24.40;99.90;;;;;;5012735;28;20436;-72
2021/07/10 12:38:55;;;;;;;4.80;4.27;;;24.60;99.90;;;;;;5014026;28;20464;-70
2021/07/10 12:41:23;;;;;;;4.13;3.83;;;24.50;99.90;;;;;;5013883;28;20404;-72
2021/07/10 12:43:49;;;;;;;4.47;4.13;;;24.60;99.90;;;;;;5013877;28;20873;-71